Costa Atlantica — IBLQ — position and weather

sailwx.info

Track history (hours):
 
Tides and Currents Weather Stations Pressure Air Temp Water Temp Dewpoint Dewpoint Depression Visibility Wind Speed Wind Dir Waves Ship Positions

Costa Atlantica (Italy)

Last reported at 2018-Feb-26 01:36 UTC. Time now 2018-Feb-26 02:13 UTC.
Position N 25°16' E 121°08'.

Length 292 m; draft 8 m.

Type: Ship. MMSI: 247645000.

Date/timePositionNaut miles runAvg speedWind from/ knotsBaromVisibWave heightAir tempDewpointWater temp
2018-Feb-26 01:36N 25°16' E 121°08'519.2
2018-Feb-26 01:22N 25°17' E 121°13'1118.8
2018-Feb-26 00:46N 25°21' E 121°24'818.6
2018-Feb-26 00:22N 25°23' E 121°32'719.3
2018-Feb-26 00:00N 25°25' E 121°40'1019.7
2018-Feb-25 23:30N 25°28' E 121°50'  
2018-Feb-23 14:32N 25°24' E 123°01'6417.5
2018-Feb-23 10:51N 25°28' E 121°50'617.8
2018-Feb-23 10:30N 25°26' E 121°43'918.3
2018-Feb-23 09:59N 25°23' E 121°33'919.3
2018-Feb-23 09:30N 25°21' E 121°23'1121.1
2018-Feb-23 09:00N 25°18' E 121°12'1020.4
2018-Feb-23 08:30N 25°15' E 121°01'1019.6
2018-Feb-23 08:00N 25°12' E 120°51'1619.6
2018-Feb-23 07:12N 25°03' E 120°36'519.5
2018-Feb-23 06:57N 25°01' E 120°32'  
2018-Feb-19 09:48N 16°12' E 108°20'719.2
2018-Feb-19 09:25N 16°16' E 108°14'1218.1
2018-Feb-19 08:45N 16°22' E 108°03'  
2018-Feb-16 15:38N 23°11' E 117°45'520.1
2018-Feb-16 15:23N 23°14' E 117°49'1119.8
2018-Feb-16 14:49N 23°20' E 117°59'819.8
2018-Feb-16 14:24N 23°25' E 118°06'2319.9
2018-Feb-16 13:15N 23°38' E 118°27'519.8
2018-Feb-16 13:00N 23°41' E 118°31'1120.0
2018-Feb-16 12:26N 23°48' E 118°41'2919.9
2018-Feb-16 10:59N 24°05' E 119°07'13220.4
2018-Feb-16 04:30N 25°16' E 121°09'1120.3
2018-Feb-16 03:57N 25°20' E 121°21'1220.9
2018-Feb-16 03:22N 25°23' E 121°34'821.1
2018-Feb-16 03:00N 25°26' E 121°42'1122.0
2018-Feb-16 02:31N 25°29' E 121°53'1521.5
2018-Feb-16 01:48N 25°33' E 122°10'  
Track history (hours):
 
Tides and Currents Weather Stations Pressure Air Temp Water Temp Dewpoint Dewpoint Depression Visibility Wind Speed Wind Dir Waves Ship Positions

Costa Atlantica (Italy)

Last reported at 2018-Feb-26 01:36 UTC. Time now 2018-Feb-26 02:13 UTC.
Position N 25°16' E 121°08'.

Length 292 m; draft 8 m.

Type: Ship. MMSI: 247645000.

Date/timePositionNaut miles runAvg speedWind from/ knotsBaromVisibWave heightAir tempDewpointWater temp
2018-Feb-26 01:36N 25°16' E 121°08'519.2
2018-Feb-26 01:22N 25°17' E 121°13'1118.8
2018-Feb-26 00:46N 25°21' E 121°24'818.6
2018-Feb-26 00:22N 25°23' E 121°32'719.3
2018-Feb-26 00:00N 25°25' E 121°40'1019.7
2018-Feb-25 23:30N 25°28' E 121°50'  
2018-Feb-23 14:32N 25°24' E 123°01'6417.5
2018-Feb-23 10:51N 25°28' E 121°50'617.8
2018-Feb-23 10:30N 25°26' E 121°43'918.3
2018-Feb-23 09:59N 25°23' E 121°33'919.3
2018-Feb-23 09:30N 25°21' E 121°23'1121.1
2018-Feb-23 09:00N 25°18' E 121°12'1020.4
2018-Feb-23 08:30N 25°15' E 121°01'1019.6
2018-Feb-23 08:00N 25°12' E 120°51'1619.6
2018-Feb-23 07:12N 25°03' E 120°36'519.5
2018-Feb-23 06:57N 25°01' E 120°32'  
2018-Feb-19 09:48N 16°12' E 108°20'719.2
2018-Feb-19 09:25N 16°16' E 108°14'1218.1
2018-Feb-19 08:45N 16°22' E 108°03'  
2018-Feb-16 15:38N 23°11' E 117°45'520.1
2018-Feb-16 15:23N 23°14' E 117°49'1119.8
2018-Feb-16 14:49N 23°20' E 117°59'819.8
2018-Feb-16 14:24N 23°25' E 118°06'2319.9
2018-Feb-16 13:15N 23°38' E 118°27'519.8
2018-Feb-16 13:00N 23°41' E 118°31'1120.0
2018-Feb-16 12:26N 23°48' E 118°41'2919.9
2018-Feb-16 10:59N 24°05' E 119°07'13220.4
2018-Feb-16 04:30N 25°16' E 121°09'1120.3
2018-Feb-16 03:57N 25°20' E 121°21'1220.9
2018-Feb-16 03:22N 25°23' E 121°34'821.1
2018-Feb-16 03:00N 25°26' E 121°42'1122.0
2018-Feb-16 02:31N 25°29' E 121°53'1521.5
2018-Feb-16 01:48N 25°33' E 122°10'  

Dump ship's entire track history